Time;durP1;ratioP1;P1;durP2;ratioP2;P2;SDS_P1;SDS_P2;PMS_P1;PMS_P2;Temp;Humidity;BMP_temperature;BMP_pressure;BME280_temperature;BME280_humidity;BME280_pressure;Samples;Min_cycle;Max_cycle;Signal;HPM_P1;HPM_P2
2023/05/07 00:00:09;;;;;;;2.00;1.40;;;;;;;15.57;30.35;100408.99;104241;1257;73821;-62
2023/05/07 00:02:37;;;;;;;2.10;1.60;;;;;;;15.58;30.32;100406.69;104508;1257;71336;-62
2023/05/07 00:05:06;;;;;;;1.80;1.60;;;;;;;15.54;30.42;100403.73;104382;1251;72249;-62
2023/05/07 00:07:33;;;;;;;1.60;1.50;;;;;;;15.45;30.75;100399.92;104578;1254;60578;-62
2023/05/07 00:10:00;;;;;;;1.80;1.40;;;;;;;15.46;30.90;100400.23;104485;1252;60491;-62
2023/05/07 00:12:30;;;;;;;2.30;1.70;;;;;;;15.45;30.97;100401.15;104343;1257;76085;-62
2023/05/07 00:14:57;;;;;;;2.60;1.70;;;;;;;15.47;30.91;100395.09;104301;1267;70201;-62
2023/05/07 00:17:24;;;;;;;1.60;1.50;;;;;;;15.47;30.63;100392.41;104620;1257;73014;-62
2023/05/07 00:19:51;;;;;;;1.60;1.50;;;;;;;15.45;30.88;100386.84;104500;1253;60527;-62
2023/05/07 00:22:18;;;;;;;1.80;1.50;;;;;;;15.44;30.91;100387.98;104418;1251;60600;-62
2023/05/07 00:24:46;;;;;;;3.00;1.40;;;;;;;15.43;30.87;100390.00;104330;1257;74942;-62
2023/05/07 00:27:13;;;;;;;1.60;1.40;;;;;;;15.39;30.80;100391.58;104504;1253;70282;-62
2023/05/07 00:29:40;;;;;;;1.50;1.40;;;;;;;15.34;30.90;100390.61;104332;1254;74008;-66
2023/05/07 00:32:08;;;;;;;1.70;1.60;;;;;;;15.29;30.88;100396.85;104341;1254;60647;-62
2023/05/07 00:34:35;;;;;;;2.20;1.70;;;;;;;15.24;30.93;100398.16;104419;1257;61165;-65
2023/05/07 00:37:02;;;;;;;1.60;1.50;;;;;;;15.22;31.09;100399.48;104417;1263;74521;-62
2023/05/07 00:39:32;;;;;;;1.60;1.50;;;;;;;15.20;31.03;100401.91;104429;1257;70684;-62
2023/05/07 00:42:00;;;;;;;1.70;1.30;;;;;;;15.11;31.08;100400.60;104525;1268;72771;-62
2023/05/07 00:44:28;;;;;;;2.50;1.60;;;;;;;15.06;31.23;100404.19;104521;1262;60581;-62
2023/05/07 00:46:57;;;;;;;1.50;1.40;;;;;;;15.01;31.36;100407.77;104289;1254;60322;-63
2023/05/07 00:49:37;;;;;;;4.90;1.60;;;;;;;15.02;31.31;100406.16;104540;1259;73855;-62
2023/05/07 00:52:06;;;;;;;2.20;1.60;;;;;;;15.03;31.67;100409.10;104338;1270;69544;-62
2023/05/07 00:54:34;;;;;;;2.20;1.70;;;;;;;15.03;31.57;100406.61;104322;1258;73038;-62
2023/05/07 00:57:03;;;;;;;2.00;1.60;;;;;;;15.02;31.62;100411.27;104326;1258;60465;-62
2023/05/07 00:59:31;;;;;;;1.90;1.80;;;;;;;15.00;31.56;100411.01;104660;1257;61814;-63
2023/05/07 01:01:59;;;;;;;1.20;1.10;;;;;;;14.97;31.78;100414.84;104570;1258;73852;-62
2023/05/07 01:04:26;;;;;;;;;;;;;;;14.98;31.73;100415.14;104542;1266;69846;-63
2023/05/07 01:06:55;;;;;;;2.20;1.10;;;;;;;14.99;31.89;100417.05;104586;1254;73743;-62
2023/05/07 01:09:24;;;;;;;1.90;1.70;;;;;;;14.98;31.81;100419.57;104513;1258;60571;-62
2023/05/07 01:11:51;;;;;;;2.80;1.70;;;;;;;15.02;31.68;100415.34;106480;1253;62434;-63
2023/05/07 01:14:18;;;;;;;1.90;1.30;;;;;;;15.02;31.68;100415.86;107796;1254;75769;-63
2023/05/07 01:16:47;;;;;;;1.30;1.20;;;;;;;15.01;31.68;100415.38;104321;1259;72260;-62
2023/05/07 01:19:15;;;;;;;1.50;1.40;;;;;;;14.99;31.79;100414.95;104982;1257;72491;-63
2023/05/07 01:21:48;;;;;;;1.70;1.40;;;;;;;14.97;31.78;100419.46;104317;1263;60545;-62
2023/05/07 01:24:16;;;;;;;2.00;1.80;;;;;;;14.97;31.76;100414.13;104574;1254;60610;-62
2023/05/07 01:26:44;;;;;;;3.80;1.60;;;;;;;14.98;31.74;100407.03;104586;1254;74025;-63
2023/05/07 01:29:13;;;;;;;2.40;1.70;;;;;;;14.98;31.78;100411.83;104577;1264;69693;-62
2023/05/07 01:31:40;;;;;;;2.10;1.90;;;;;;;14.97;31.61;100414.52;104326;1252;73618;-62
2023/05/07 01:34:08;;;;;;;2.00;1.80;;;;;;;14.94;31.72;100423.09;104434;1252;60491;-64
2023/05/07 01:36:35;;;;;;;2.50;1.60;;;;;;;14.95;31.67;100425.39;104475;1257;60558;-62
2023/05/07 01:39:02;;;;;;;3.00;1.60;;;;;;;14.93;31.49;100426.52;104376;1254;74187;-62
2023/05/07 01:41:29;;;;;;;1.90;1.60;;;;;;;14.91;31.64;100429.98;104399;1267;70470;-62
2023/05/07 01:43:57;;;;;;;2.20;1.70;;;;;;;14.94;31.65;100430.19;104388;1259;73874;-61
2023/05/07 01:46:24;;;;;;;;;;;;;;;14.93;31.49;100436.39;104275;1253;60634;-64
2023/05/07 01:48:52;;;;;;;1.70;1.50;;;;;;;14.88;31.47;100439.30;104386;1254;60601;-64
2023/05/07 01:51:21;;;;;;;2.30;1.70;;;;;;;14.76;31.73;100441.80;104579;1253;74114;-63
2023/05/07 01:53:50;;;;;;;;;;;;;;;14.76;31.87;100444.27;104168;1254;69917;-65
2023/05/07 01:56:18;;;;;;;1.10;1.00;;;;;;;14.78;31.99;100442.22;104299;1254;73867;-64
2023/05/07 01:58:47;;;;;;;1.50;1.30;;;;;;;14.74;31.60;100444.70;104429;1257;61026;-65
2023/05/07 02:01:14;;;;;;;1.80;1.60;;;;;;;14.69;32.00;100451.48;104392;1257;60507;-64
2023/05/07 02:03:41;;;;;;;;;;;;;;;14.68;32.10;100451.17;104394;1273;74042;-64
2023/05/07 02:06:13;;;;;;;3.20;1.30;;;;;;;14.69;32.23;100448.68;104436;1259;69994;-64
2023/05/07 02:08:40;;;;;;;2.20;1.70;;;;;;;14.60;32.01;100444.89;104877;1258;71998;-65
2023/05/07 02:11:08;;;;;;;1.60;1.50;;;;;;;14.57;32.38;100445.69;104420;1254;60575;-64
2023/05/07 02:13:35;;;;;;;2.40;1.60;;;;;;;14.65;32.30;100448.89;104288;1259;62796;-65
2023/05/07 02:16:03;;;;;;;2.70;1.70;;;;;;;14.66;32.17;100450.41;104458;1256;73786;-64
2023/05/07 02:18:30;;;;;;;1.50;1.40;;;;;;;14.66;32.46;100451.80;104961;1256;71023;-66
2023/05/07 02:20:57;;;;;;;1.90;1.50;;;;;;;14.65;32.16;100456.79;104519;1267;72959;-63
2023/05/07 02:23:24;;;;;;;2.90;1.80;;;;;;;14.68;32.49;100457.20;104383;1253;60632;-64
2023/05/07 02:25:52;;;;;;;2.80;1.30;;;;;;;14.67;32.51;100461.45;104438;1254;60504;-63
2023/05/07 02:28:19;;;;;;;1.60;1.50;;;;;;;14.60;32.59;100456.65;104605;1258;74773;-63
2023/05/07 02:30:52;;;;;;;1.70;1.50;;;;;;;14.61;32.87;100467.73;104362;1256;69041;-63
2023/05/07 02:33:20;;;;;;;2.00;1.70;;;;;;;14.58;32.79;100470.88;104339;1257;72501;-63
2023/05/07 02:35:47;;;;;;;2.50;1.40;;;;;;;14.55;32.66;100471.49;104280;1255;61032;-62
2023/05/07 02:38:15;;;;;;;1.90;1.80;;;;;;;14.54;32.93;100467.52;104710;1252;60908;-62
2023/05/07 02:40:43;;;;;;;1.70;1.50;;;;;;;14.57;33.02;100472.13;104404;1260;74736;-63
2023/05/07 02:43:10;;;;;;;2.60;1.30;;;;;;;14.54;32.67;100477.73;104405;1251;69316;-63
2023/05/07 02:45:37;;;;;;;1.70;1.60;;;;;;;14.48;33.25;100483.14;104387;1256;74089;-64
2023/05/07 02:48:06;;;;;;;2.00;1.40;;;;;;;14.48;33.20;100483.67;104577;1251;60529;-65
2023/05/07 02:50:33;;;;;;;1.60;1.40;;;;;;;14.52;33.01;100486.11;104481;1263;60439;-62
2023/05/07 02:53:00;;;;;;;1.70;1.50;;;;;;;14.54;32.69;100489.71;104463;1252;74236;-62
2023/05/07 02:55:28;;;;;;;2.00;1.60;;;;;;;14.54;32.97;100487.25;105076;1257;68917;-63
2023/05/07 02:57:55;;;;;;;1.70;1.50;;;;;;;14.52;33.03;100489.64;104388;1257;72864;-63
2023/05/07 03:00:23;;;;;;;1.60;1.30;;;;;;;14.54;33.36;100488.66;104597;1260;60535;-63
2023/05/07 03:03:20;;;;;;;1.80;1.30;;;;;;;14.55;33.09;100486.50;104168;1257;60573;-65
2023/05/07 03:05:48;;;;;;;2.50;1.30;;;;;;;14.52;33.11;100492.12;104459;1257;73704;-62
2023/05/07 03:08:15;;;;;;;1.80;1.20;;;;;;;14.53;33.15;100496.66;104356;1257;70448;-62
2023/05/07 03:10:42;;;;;;;1.60;1.50;;;;;;;14.55;33.38;100509.27;104385;1252;72918;-62
2023/05/07 03:13:09;;;;;;;4.00;1.70;;;;;;;14.58;33.44;100513.03;104328;1254;60494;-62
2023/05/07 03:15:37;;;;;;;1.90;1.70;;;;;;;14.61;33.22;100513.61;104424;1260;60451;-62
2023/05/07 03:18:04;;;;;;;1.90;1.60;;;;;;;14.59;33.24;100509.98;104767;1251;74232;-63
2023/05/07 03:20:31;;;;;;;2.00;1.70;;;;;;;14.59;33.35;100514.75;104441;1256;69153;-61
2023/05/07 03:22:58;;;;;;;1.80;1.50;;;;;;;14.59;33.42;100515.63;104463;1252;72737;-61
2023/05/07 03:25:25;;;;;;;1.60;1.40;;;;;;;14.61;33.36;100510.44;104525;1256;60571;-62
2023/05/07 03:27:53;;;;;;;2.20;1.50;;;;;;;14.60;33.44;100510.30;104422;1257;61199;-62
2023/05/07 03:30:21;;;;;;;2.00;1.40;;;;;;;14.61;33.41;100509.73;104423;1251;74338;-61
2023/05/07 03:32:48;;;;;;;1.80;1.70;;;;;;;14.67;33.58;100513.17;104591;1258;68749;-61
2023/05/07 03:35:16;;;;;;;2.00;1.60;;;;;;;14.69;33.64;100511.82;104263;1252;72943;-61
2023/05/07 03:37:43;;;;;;;3.40;1.20;;;;;;;14.73;33.40;100513.41;104574;1255;60511;-63
2023/05/07 03:40:12;;;;;;;1.80;1.70;;;;;;;14.81;33.47;100511.82;104325;1256;60655;-61
2023/05/07 03:42:44;;;;;;;1.80;1.70;;;;;;;14.87;33.40;100515.25;104295;1257;74084;-62
2023/05/07 03:45:11;;;;;;;;;;;;;;;14.90;33.36;100514.91;104539;1251;69878;-67
2023/05/07 03:47:41;;;;;;;1.50;1.40;;;;;;;14.95;33.62;100516.63;104500;1259;72250;-64
2023/05/07 03:50:10;;;;;;;2.00;1.80;;;;;;;14.99;33.43;100514.16;104605;1254;60064;-65
2023/05/07 03:52:38;;;;;;;2.20;1.50;;;;;;;15.04;33.34;100512.33;104905;1260;60999;-64
2023/05/07 03:55:07;;;;;;;2.00;1.50;;;;;;;15.06;33.50;100516.10;104458;1258;73725;-66
2023/05/07 03:57:35;;;;;;;4.10;1.70;;;;;;;15.09;33.52;100519.15;104489;1258;70201;-65
2023/05/07 04:00:04;;;;;;;1.60;1.50;;;;;;;15.12;33.56;100524.33;104318;1257;75423;-65
2023/05/07 04:02:35;;;;;;;1.60;1.50;;;;;;;15.12;33.70;100528.02;104485;1261;60559;-65
2023/05/07 04:05:03;;;;;;;2.50;1.90;;;;;;;15.13;33.82;100533.06;104547;1258;61278;-65
2023/05/07 04:07:30;;;;;;;3.10;2.20;;;;;;;15.14;33.96;100536.21;104454;1258;74317;-63
2023/05/07 04:09:57;;;;;;;2.60;2.20;;;;;;;15.16;34.00;100532.58;104567;1257;71474;-63
2023/05/07 04:12:25;;;;;;;2.20;2.00;;;;;;;15.17;33.84;100535.19;104456;1257;75203;-63
2023/05/07 04:14:52;;;;;;;2.00;1.80;;;;;;;15.16;34.00;100532.42;104387;1260;60562;-63
2023/05/07 04:17:20;;;;;;;;;;;;;;;15.14;33.80;100527.05;104459;1257;60620;-63
2023/05/07 04:19:47;;;;;;;1.70;1.60;;;;;;;15.15;34.23;100525.94;104372;1251;73525;-64
2023/05/07 04:22:15;;;;;;;1.80;1.70;;;;;;;15.13;34.08;100530.11;104399;1266;69879;-63
2023/05/07 04:24:43;;;;;;;3.70;2.20;;;;;;;15.10;33.95;100517.86;104386;1260;73434;-63
2023/05/07 04:27:12;;;;;;;2.40;1.90;;;;;;;15.09;34.03;100512.27;104325;1253;60571;-63
2023/05/07 04:29:42;;;;;;;3.00;2.70;;;;;;;15.10;34.27;100509.02;104404;1256;60533;-63
2023/05/07 04:32:10;;;;;;;2.40;2.20;;;;;;;15.12;34.21;100500.98;104323;1252;74089;-63
2023/05/07 04:34:38;;;;;;;2.50;2.10;;;;;;;15.08;34.46;100499.59;104342;1257;72019;-63
2023/05/07 04:37:06;;;;;;;2.20;2.00;;;;;;;15.08;34.44;100493.95;104508;1267;72704;-64
2023/05/07 04:39:35;;;;;;;2.80;2.00;;;;;;;15.07;34.72;100491.36;104735;1257;60877;-63
2023/05/07 04:42:03;;;;;;;2.20;2.00;;;;;;;15.09;34.66;100490.70;104424;1257;60486;-63
2023/05/07 04:44:31;;;;;;;2.80;2.40;;;;;;;15.14;34.78;100491.86;104332;1256;73749;-63
2023/05/07 04:46:58;;;;;;;2.30;2.10;;;;;;;15.21;34.92;100492.08;104468;1256;71034;-62
2023/05/07 04:49:25;;;;;;;4.10;2.20;;;;;;;15.27;34.74;100498.86;104534;1256;73991;-63
2023/05/07 04:51:53;;;;;;;;;;;;;;;15.28;34.52;100500.76;104524;1256;62106;-63
2023/05/07 04:54:21;;;;;;;1.90;1.70;;;;;;;15.29;34.41;100496.47;104447;1261;62646;-64
2023/05/07 04:58:11;;;;;;;1.90;1.70;;;;;;;14.37;36.70;100493.50;101569;1291;601780;-64
2023/05/07 05:00:39;;;;;;;2.60;1.70;;;;;;;15.28;34.79;100487.17;103869;1266;59399;-66
2023/05/07 05:03:07;;;;;;;3.10;1.80;;;;;;;15.31;35.01;100488.77;103660;1267;61041;-62
2023/05/07 05:05:35;;;;;;;2.10;1.70;;;;;;;15.38;34.84;100488.80;103988;1260;72189;-62
2023/05/07 05:08:03;;;;;;;2.00;1.60;;;;;;;15.46;34.83;100485.92;104057;1259;69642;-61
2023/05/07 05:10:30;;;;;;;2.30;2.10;;;;;;;15.54;34.44;100483.40;104050;1265;75190;-61
2023/05/07 05:12:57;;;;;;;2.20;1.70;;;;;;;15.56;34.56;100479.95;104073;1262;161371;-61
2023/05/07 05:15:25;;;;;;;2.70;2.30;;;;;;;15.58;34.48;100478.23;104336;1256;60570;-64
2023/05/07 05:17:53;;;;;;;4.10;2.10;;;;;;;15.58;34.51;100482.35;104184;1262;72818;-63
2023/05/07 05:20:20;;;;;;;2.30;1.70;;;;;;;15.60;34.82;100477.83;104191;1277;69555;-62
2023/05/07 05:22:47;;;;;;;3.40;2.00;;;;;;;15.64;34.58;100474.23;104328;1260;75313;-63
2023/05/07 05:25:15;;;;;;;2.80;1.90;;;;;;;15.65;34.74;100473.64;104454;1257;59963;-64
2023/05/07 05:27:42;;;;;;;4.20;1.80;;;;;;;15.69;34.59;100472.58;104271;1255;60939;-65
2023/05/07 05:30:10;;;;;;;3.40;1.80;;;;;;;15.72;34.71;100474.55;104251;1266;75830;-66
2023/05/07 05:32:38;;;;;;;2.60;1.70;;;;;;;15.78;34.97;100471.09;104257;1261;69386;-65
2023/05/07 05:35:06;;;;;;;2.10;1.90;;;;;;;15.81;34.95;100468.45;104338;1262;74036;-65
2023/05/07 05:37:33;;;;;;;4.40;2.30;;;;;;;15.85;34.87;100469.31;104366;1259;59752;-61
2023/05/07 05:40:01;;;;;;;2.20;2.00;;;;;;;15.85;34.77;100472.31;104177;1254;61092;-63
2023/05/07 05:42:29;;;;;;;2.60;1.70;;;;;;;15.87;34.74;100470.48;104403;1268;72665;-64
2023/05/07 05:44:56;;;;;;;4.80;2.00;;;;;;;15.94;34.98;100469.02;104337;1267;70518;-66
2023/05/07 05:47:23;;;;;;;4.10;2.60;;;;;;;15.99;34.78;100463.99;104291;1262;72568;-63
2023/05/07 05:49:52;;;;;;;4.00;2.10;;;;;;;16.02;34.63;100465.43;104332;1267;59745;-63
2023/05/07 05:52:20;;;;;;;5.70;2.30;;;;;;;16.07;34.64;100462.18;104257;1271;59822;-63
2023/05/07 05:54:47;;;;;;;4.10;2.20;;;;;;;16.13;34.68;100465.03;104387;1261;73073;-63
2023/05/07 05:57:15;;;;;;;3.80;2.20;;;;;;;16.17;34.72;100465.89;104301;1253;69259;-63
2023/05/07 05:59:44;;;;;;;2.00;1.70;;;;;;;16.18;34.77;100466.92;104279;1251;72865;-61
2023/05/07 06:02:11;;;;;;;3.30;1.90;;;;;;;16.24;34.69;100462.51;104413;1253;59748;-63
2023/05/07 06:04:39;;;;;;;1.50;1.40;;;;;;;16.31;34.78;100458.58;104328;1258;61060;-62
2023/05/07 06:07:07;;;;;;;1.80;1.70;;;;;;;16.37;34.53;100455.27;104474;1257;75155;-63
2023/05/07 06:09:34;;;;;;;2.20;1.90;;;;;;;16.41;34.40;100454.36;104372;1271;69989;-64
2023/05/07 06:12:01;;;;;;;1.60;1.50;;;;;;;16.46;34.35;100448.62;104455;1258;74413;-65
2023/05/07 06:14:29;;;;;;;;;;;;;;;16.51;33.96;100453.77;106243;1250;59742;-64
2023/05/07 06:16:56;;;;;;;2.60;1.40;;;;;;;16.51;34.10;100461.05;104991;1251;60906;-64
2023/05/07 06:19:24;;;;;;;5.10;1.50;;;;;;;16.45;34.32;100464.91;104453;1258;73573;-68
2023/05/07 06:21:52;;;;;;;1.50;1.40;;;;;;;16.42;34.16;100460.65;104464;1258;69467;-67
2023/05/07 06:24:19;;;;;;;2.40;1.70;;;;;;;16.43;34.05;100467.48;104372;1259;72658;-67
2023/05/07 06:26:47;;;;;;;1.60;1.20;;;;;;;16.46;34.14;100471.04;104386;1258;60563;-68
2023/05/07 06:29:14;;;;;;;1.40;1.30;;;;;;;16.51;34.05;100474.83;104770;1251;61694;-66
2023/05/07 06:31:42;;;;;;;1.30;1.10;;;;;;;16.56;33.79;100471.92;104716;1256;72762;-67
2023/05/07 06:34:09;;;;;;;4.80;1.50;;;;;;;16.68;33.77;100473.95;104387;1253;69916;-66
2023/05/07 06:36:37;;;;;;;1.60;1.20;;;;;;;16.68;33.47;100470.75;104331;1272;73687;-67
2023/05/07 06:39:11;;;;;;;1.90;1.40;;;;;;;16.76;33.56;100469.60;104337;1256;61898;-68
2023/05/07 06:41:39;;;;;;;3.70;1.10;;;;;;;16.78;33.65;100472.89;104435;1256;61858;-67
2023/05/07 06:44:09;;;;;;;1.20;1.10;;;;;;;16.75;33.56;100474.41;104618;1257;72487;-69
2023/05/07 06:46:41;;;;;;;3.10;1.00;;;;;;;16.79;33.48;100477.05;104452;1258;70069;-68
2023/05/07 06:49:09;;;;;;;2.10;1.20;;;;;;;16.83;33.67;100477.02;104381;1256;73437;-68
2023/05/07 06:51:36;;;;;;;1.60;1.40;;;;;;;16.89;33.52;100478.66;104582;1256;61034;-68
2023/05/07 06:54:04;;;;;;;1.00;0.80;;;;;;;16.88;33.31;100479.92;104449;1250;60152;-68
2023/05/07 06:56:32;;;;;;;1.90;1.30;;;;;;;16.90;33.12;100476.65;104765;1257;73858;-69
2023/05/07 06:59:00;;;;;;;;;;;;;;;16.92;33.17;100477.25;104688;1256;69658;-68
2023/05/07 07:01:29;;;;;;;1.20;1.20;;;;;;;17.02;32.70;100475.65;104586;1265;72323;-68
2023/05/07 07:03:57;;;;;;;1.30;1.20;;;;;;;16.98;32.73;100470.02;104464;1254;60227;-69
2023/05/07 07:06:24;;;;;;;1.40;0.70;;;;;;;16.99;32.33;100470.33;104826;1252;60013;-68
2023/05/07 07:08:51;;;;;;;1.50;0.90;;;;;;;17.00;32.46;100468.11;104660;1253;72910;-71
2023/05/07 07:11:18;;;;;;;1.20;1.10;;;;;;;17.03;32.18;100470.96;104519;1256;69932;-69
2023/05/07 07:13:46;;;;;;;1.90;1.00;;;;;;;17.03;32.17;100473.62;104247;1256;73400;-69
2023/05/07 07:16:14;;;;;;;2.00;1.00;;;;;;;17.00;31.83;100466.34;104721;1266;60424;-69
2023/05/07 07:18:41;;;;;;;1.30;0.80;;;;;;;17.03;31.49;100464.55;104341;1259;62455;-70
2023/05/07 07:21:08;;;;;;;3.30;0.80;;;;;;;17.08;31.71;100463.75;104401;1265;73176;-71
2023/05/07 07:23:35;;;;;;;0.90;0.90;;;;;;;17.18;31.61;100468.36;104268;1263;70562;-70
2023/05/07 07:26:02;;;;;;;1.70;0.90;;;;;;;17.28;31.26;100470.59;104426;1254;72658;-68
2023/05/07 07:28:29;;;;;;;2.30;0.80;;;;;;;17.34;31.15;100473.79;104407;1253;61267;-70
2023/05/07 07:30:56;;;;;;;0.90;0.80;;;;;;;17.41;31.12;100476.75;104697;1254;60189;-67
2023/05/07 07:33:24;;;;;;;1.30;1.00;;;;;;;17.51;30.81;100477.09;104480;1257;72344;-68
2023/05/07 07:35:51;;;;;;;1.00;0.90;;;;;;;17.56;30.60;100473.42;104525;1259;71281;-67
2023/05/07 07:38:18;;;;;;;0.70;0.70;;;;;;;17.54;30.96;100476.38;104450;1258;73086;-68
2023/05/07 07:40:47;;;;;;;1.30;0.90;;;;;;;17.59;30.72;100474.28;104437;1257;59964;-66
2023/05/07 07:43:14;;;;;;;1.10;0.60;;;;;;;17.65;30.28;100472.34;104468;1258;61202;-67
2023/05/07 07:45:42;;;;;;;;;;;;;;;17.69;29.85;100469.80;104523;1257;74144;-66
2023/05/07 07:48:10;;;;;;;5.80;0.70;;;;;;;17.74;29.78;100470.77;104839;1259;69901;-69
2023/05/07 07:50:38;;;;;;;0.60;0.60;;;;;;;17.71;29.65;100472.52;104797;1263;73857;-69
2023/05/07 07:53:13;;;;;;;0.80;0.80;;;;;;;17.71;29.47;100471.80;104447;1258;62471;-68
2023/05/07 07:55:40;;;;;;;0.90;0.80;;;;;;;17.68;29.57;100471.64;104384;1258;59688;-68
2023/05/07 07:58:08;;;;;;;0.90;0.70;;;;;;;17.67;29.57;100470.08;104429;1257;75446;-69
2023/05/07 08:00:36;;;;;;;2.90;0.90;;;;;;;17.66;29.63;100473.69;104270;1272;69954;-67
2023/05/07 08:03:04;;;;;;;0.70;0.70;;;;;;;17.68;29.68;100477.67;104524;1258;72288;-67
2023/05/07 08:05:35;;;;;;;0.90;0.60;;;;;;;17.70;29.55;100474.36;104406;1254;60435;-68
2023/05/07 08:08:04;;;;;;;1.60;0.90;;;;;;;17.71;29.19;100474.10;104436;1259;60485;-68
2023/05/07 08:10:34;;;;;;;2.10;0.80;;;;;;;17.70;29.31;100476.29;104477;1260;74358;-65
2023/05/07 08:13:05;;;;;;;0.90;0.80;;;;;;;17.70;28.96;100479.32;104680;1256;69921;-66
2023/05/07 08:15:34;;;;;;;5.70;0.70;;;;;;;17.71;28.99;100482.45;104761;1257;72408;-67
2023/05/07 08:18:02;;;;;;;1.40;1.00;;;;;;;17.74;28.59;100480.15;104505;1254;60642;-66
2023/05/07 08:20:30;;;;;;;;;;;;;;;17.78;28.95;100481.19;104558;1256;62453;-68
2023/05/07 08:22:57;;;;;;;;;;;;;;;17.85;28.77;100478.42;104466;1252;75647;-67
2023/05/07 08:25:25;;;;;;;0.60;0.60;;;;;;;17.87;28.47;100480.30;104385;1269;69833;-66
2023/05/07 08:27:53;;;;;;;0.80;0.60;;;;;;;17.87;28.55;100477.30;104452;1258;75487;-68
2023/05/07 08:30:21;;;;;;;1.00;0.70;;;;;;;17.92;28.45;100476.83;104484;1258;60501;-66
2023/05/07 08:32:48;;;;;;;0.80;0.70;;;;;;;18.02;28.41;100475.48;104618;1253;62906;-67
2023/05/07 08:35:16;;;;;;;0.60;0.60;;;;;;;18.08;28.42;100471.38;104450;1259;73126;-67
2023/05/07 08:37:43;;;;;;;1.00;0.90;;;;;;;18.14;28.11;100471.60;104357;1259;71993;-68
2023/05/07 08:40:11;;;;;;;1.00;0.70;;;;;;;18.16;28.14;100472.48;104720;1254;73641;-69
2023/05/07 08:42:41;;;;;;;0.80;0.80;;;;;;;18.17;27.70;100471.04;104401;1257;61354;-68
2023/05/07 08:45:10;;;;;;;0.50;0.50;;;;;;;18.18;28.02;100473.30;104426;1257;62444;-70
2023/05/07 08:47:46;;;;;;;1.80;0.90;;;;;;;18.24;27.91;100473.23;104816;1258;74981;-67
2023/05/07 08:50:15;;;;;;;0.70;0.70;;;;;;;18.29;28.01;100478.11;104513;1256;70957;-68
2023/05/07 08:52:42;;;;;;;0.80;0.70;;;;;;;18.25;27.88;100474.81;104548;1259;73092;-65
2023/05/07 08:55:09;;;;;;;0.70;0.70;;;;;;;18.22;27.50;100478.70;104454;1255;61678;-67
2023/05/07 08:57:37;;;;;;;1.00;0.70;;;;;;;18.24;27.94;100473.45;104352;1260;62603;-68
2023/05/07 09:00:08;;;;;;;2.20;0.60;;;;;;;18.24;27.73;100478.91;104266;1257;74986;-67
2023/05/07 09:02:36;;;;;;;;;;;;;;;18.24;27.70;100474.69;104402;1260;72169;-67
2023/05/07 09:05:05;;;;;;;0.90;0.60;;;;;;;18.21;27.37;100476.10;104364;1268;74443;-67
2023/05/07 09:07:32;;;;;;;0.80;0.80;;;;;;;18.14;27.48;100475.34;104264;1256;60923;-68
2023/05/07 09:10:04;;;;;;;;;;;;;;;18.11;27.37;100477.81;104448;1268;60741;-67
2023/05/07 09:12:32;;;;;;;1.90;0.80;;;;;;;18.08;27.27;100478.31;104387;1259;74376;-66
2023/05/07 09:14:59;;;;;;;;;;;;;;;17.99;27.13;100477.79;104658;1259;72856;-70
2023/05/07 09:17:28;;;;;;;1.80;0.50;;;;;;;18.03;27.47;100483.78;104230;1259;75217;-70
2023/05/07 09:19:55;;;;;;;1.30;0.80;;;;;;;18.06;27.30;100484.09;104402;1259;60619;-70
2023/05/07 09:22:22;;;;;;;1.00;0.70;;;;;;;18.13;27.47;100485.65;104280;1252;60559;-69
2023/05/07 09:24:59;;;;;;;0.90;0.50;;;;;;;18.17;27.28;100487.56;104320;1257;76338;-67
2023/05/07 09:27:27;;;;;;;4.10;0.60;;;;;;;18.18;27.14;100482.35;104388;1257;70400;-68
2023/05/07 09:29:55;;;;;;;;;;;;;;;18.23;27.11;100484.67;104402;1259;73087;-69
2023/05/07 09:32:22;;;;;;;0.70;0.70;;;;;;;18.32;26.99;100490.38;104291;1255;60926;-70
2023/05/07 09:34:49;;;;;;;0.40;0.40;;;;;;;18.34;26.99;100492.18;104341;1269;62579;-68
2023/05/07 09:37:18;;;;;;;1.90;0.70;;;;;;;18.40;26.59;100491.95;104265;1259;74862;-69
2023/05/07 09:39:47;;;;;;;0.80;0.80;;;;;;;18.39;27.03;100497.70;104365;1269;72110;-67
2023/05/07 09:42:16;;;;;;;0.70;0.70;;;;;;;18.45;26.67;100493.61;104270;1259;73754;-67
2023/05/07 09:44:44;;;;;;;1.70;0.80;;;;;;;18.47;26.79;100489.05;104319;1256;60502;-68
2023/05/07 09:47:18;;;;;;;1.20;0.80;;;;;;;18.58;26.90;100477.54;104296;1253;60632;-68
2023/05/07 09:49:48;;;;;;;0.60;0.60;;;;;;;18.64;26.99;100471.49;104445;1259;74659;-68
2023/05/07 09:52:18;;;;;;;0.90;0.80;;;;;;;18.64;26.88;100467.94;104519;1257;69538;-66
2023/05/07 09:54:49;;;;;;;1.50;0.70;;;;;;;18.66;26.90;100470.11;104286;1265;73979;-68
2023/05/07 09:57:18;;;;;;;1.40;0.70;;;;;;;18.68;26.41;100471.75;104247;1260;62872;-69
2023/05/07 09:59:47;;;;;;;0.70;0.70;;;;;;;18.71;26.20;100470.66;104329;1276;61913;-68
2023/05/07 10:02:16;;;;;;;0.70;0.70;;;;;;;18.73;26.53;100473.61;104343;1270;73683;-68
2023/05/07 10:04:48;;;;;;;0.70;0.70;;;;;;;18.80;26.30;100472.98;104428;1265;69306;-68
2023/05/07 10:07:17;;;;;;;0.60;0.60;;;;;;;18.85;25.98;100477.27;104311;1276;73389;-69
2023/05/07 10:09:46;;;;;;;1.20;0.90;;;;;;;18.86;26.12;100478.48;104462;1259;60795;-71
2023/05/07 10:12:21;;;;;;;1.90;0.90;;;;;;;18.85;25.98;100470.91;104351;1253;61729;-70
2023/05/07 10:14:49;;;;;;;0.60;0.60;;;;;;;18.84;25.96;100462.98;104361;1262;76363;-68
2023/05/07 10:17:17;;;;;;;1.10;0.70;;;;;;;18.84;25.90;100464.90;104368;1259;71037;-69
2023/05/07 10:19:45;;;;;;;3.60;0.80;;;;;;;18.94;25.86;100465.19;104399;1273;73005;-70
2023/05/07 10:22:12;;;;;;;1.40;0.60;;;;;;;19.04;25.92;100453.32;104454;1272;62389;-69
2023/05/07 10:24:41;;;;;;;1.80;0.60;;;;;;;19.16;25.52;100451.48;104292;1258;62934;-70
2023/05/07 10:27:14;;;;;;;0.80;0.70;;;;;;;19.21;25.62;100449.91;104391;1258;76274;-71
2023/05/07 10:30:03;;;;;;;0.60;0.60;;;;;;;19.22;25.53;100443.23;104315;1270;71065;-71
2023/05/07 10:32:50;;;;;;;0.90;0.60;;;;;;;19.18;25.12;100439.11;104365;1259;73047;-68
2023/05/07 10:35:26;;;;;;;1.20;0.80;;;;;;;19.19;25.48;100442.07;104268;1275;60902;-69
2023/05/07 10:37:53;;;;;;;1.30;0.60;;;;;;;19.25;25.75;100444.15;104305;1260;62319;-70
2023/05/07 10:40:21;;;;;;;0.80;0.80;;;;;;;19.30;25.48;100441.82;104335;1259;75253;-69
2023/05/07 10:43:02;;;;;;;1.60;0.80;;;;;;;19.35;25.46;100446.34;104231;1260;70969;-67
2023/05/07 10:45:33;;;;;;;0.70;0.70;;;;;;;19.39;25.16;100443.20;104312;1276;73147;-67
2023/05/07 10:48:10;;;;;;;0.90;0.80;;;;;;;19.38;25.15;100437.38;104347;1265;61908;-70
2023/05/07 10:51:20;;;;;;;0.70;0.70;;;;;;;19.45;25.09;100423.41;104423;1258;60514;-71
2023/05/07 10:54:10;;;;;;;0.50;0.50;;;;;;;19.49;25.35;100421.91;104366;1260;74362;-69
2023/05/07 10:56:44;;;;;;;0.60;0.60;;;;;;;19.48;25.31;100422.36;104316;1256;71340;-70
2023/05/07 10:59:30;;;;;;;0.90;0.90;;;;;;;19.49;25.36;100418.57;104251;1260;72354;-70
2023/05/07 11:02:03;;;;;;;1.30;0.80;;;;;;;19.44;25.31;100428.28;104385;1274;60560;-70
2023/05/07 11:04:45;;;;;;;3.10;0.50;;;;;;;19.39;25.05;100429.32;104321;1259;60383;-69
2023/05/07 11:07:27;;;;;;;3.40;0.60;;;;;;;19.36;24.94;100429.55;104315;1258;74469;-69
2023/05/07 11:10:06;;;;;;;1.00;0.60;;;;;;;19.26;24.91;100434.51;104339;1258;70956;-69
2023/05/07 11:12:40;;;;;;;0.60;0.40;;;;;;;19.23;24.96;100434.64;104205;1260;73138;-70
2023/05/07 11:15:15;;;;;;;1.50;0.80;;;;;;;19.27;25.07;100439.05;104463;1256;62535;-69
2023/05/07 11:17:53;;;;;;;1.50;0.70;;;;;;;19.27;24.81;100444.89;104352;1265;62330;-70
2023/05/07 11:20:22;;;;;;;0.60;0.60;;;;;;;19.24;24.88;100457.14;104358;1264;74875;-70
2023/05/07 11:22:56;;;;;;;1.10;0.60;;;;;;;19.19;24.87;100458.42;104096;1261;70182;-69
2023/05/07 11:25:32;;;;;;;1.50;0.80;;;;;;;19.11;24.93;100449.35;104240;1276;73102;-69
2023/05/07 11:28:07;;;;;;;2.90;0.70;;;;;;;19.10;25.09;100447.11;104263;1264;62369;-70
2023/05/07 11:30:34;;;;;;;0.70;0.70;;;;;;;19.08;24.85;100441.01;104389;1260;60883;-68